createdAt,value
2019-05-13T00:01:31.232Z,16.80
2019-05-13T00:04:04.116Z,16.80
2019-05-13T00:06:50.124Z,17.10
2019-05-13T00:09:13.932Z,17.30
2019-05-13T00:11:46.630Z,17.70
2019-05-13T00:14:20.354Z,17.70
2019-05-13T00:16:54.544Z,17.50
2019-05-13T00:19:27.391Z,17.20
2019-05-13T00:22:03.837Z,17.20
2019-05-13T00:24:36.786Z,17.50
2019-05-13T00:27:10.625Z,17.40
2019-05-13T00:29:44.514Z,17.40
2019-05-13T00:32:17.828Z,17.10
2019-05-13T00:34:53.300Z,17.10
2019-05-13T00:37:25.778Z,16.90
2019-05-13T00:39:59.541Z,17.10
2019-05-13T00:42:33.488Z,17.40
2019-05-13T00:45:07.571Z,17.80
2019-05-13T00:47:43.446Z,17.60
2019-05-13T00:50:16.721Z,18.10
2019-05-13T00:52:53.635Z,17.80
2019-05-13T00:55:26.715Z,17.90
2019-05-13T00:57:59.539Z,18.10
2019-05-13T01:00:34.227Z,17.90
2019-05-13T01:03:07.521Z,18.10
2019-05-13T01:05:41.388Z,18.10
2019-05-13T01:08:14.830Z,17.80
2019-05-13T01:10:49.086Z,17.70
2019-05-13T01:13:23.739Z,17.30
2019-05-13T01:15:57.173Z,17.40
2019-05-13T01:18:33.816Z,17.60
2019-05-13T01:21:06.331Z,17.70
2019-05-13T01:23:40.575Z,17.70
2019-05-13T01:26:14.327Z,17.70
2019-05-13T01:28:47.412Z,17.90
2019-05-13T01:31:23.818Z,17.50
2019-05-13T01:33:57.263Z,17.60
2019-05-13T01:36:34.232Z,17.50
2019-05-13T01:39:10.016Z,17.40
2019-05-13T01:41:43.803Z,17.00
2019-05-13T01:44:18.094Z,17.00
2019-05-13T01:46:53.646Z,17.40
2019-05-13T01:49:26.596Z,17.70
2019-05-13T01:52:03.483Z,17.80
2019-05-13T01:54:35.936Z,18.10
2019-05-13T01:57:09.754Z,18.00
2019-05-13T01:59:43.586Z,18.10
2019-05-13T02:02:17.610Z,18.00
2019-05-13T02:04:53.152Z,17.80
2019-05-13T02:07:26.491Z,17.80
2019-05-13T02:10:04.113Z,17.70
2019-05-13T02:12:37.443Z,17.60
2019-05-13T02:15:14.288Z,18.00
2019-05-13T02:17:46.815Z,18.30
2019-05-13T02:20:19.587Z,18.40
2019-05-13T02:22:53.630Z,18.50
2019-05-13T02:25:27.326Z,18.40
2019-05-13T02:28:09.137Z,18.40
2019-05-13T02:30:36.955Z,18.50
2019-05-13T02:33:13.208Z,18.30
2019-05-13T02:35:45.788Z,18.50
2019-05-13T02:38:28.376Z,18.70
2019-05-13T02:40:54.845Z,18.60
2019-05-13T02:43:28.651Z,18.80
2019-05-13T02:46:04.121Z,19.00
2019-05-13T02:48:38.228Z,19.10
2019-05-13T02:51:12.429Z,18.80
2019-05-13T02:53:46.540Z,19.00
2019-05-13T02:56:22.645Z,19.00
2019-05-13T02:58:55.293Z,18.80
2019-05-13T03:01:32.859Z,18.80
2019-05-13T03:04:03.966Z,18.60
2019-05-13T03:06:37.234Z,18.70
2019-05-13T03:09:12.631Z,18.60
2019-05-13T03:11:46.730Z,18.50
2019-05-13T03:14:23.869Z,18.50
2019-05-13T03:17:03.291Z,18.60
2019-05-13T03:19:35.565Z,18.80
2019-05-13T03:22:08.855Z,18.90
2019-05-13T03:24:43.020Z,18.80
2019-05-13T03:27:20.253Z,18.70
2019-05-13T03:29:53.472Z,18.50
2019-05-13T03:32:35.102Z,18.60
2019-05-13T03:35:07.041Z,18.60
2019-05-13T03:37:36.329Z,18.70
2019-05-13T03:40:13.105Z,18.90
2019-05-13T03:42:46.578Z,19.20
2019-05-13T03:45:22.080Z,19.20
2019-05-13T03:47:58.420Z,19.30
2019-05-13T03:50:34.609Z,19.50
2019-05-13T03:53:07.256Z,19.00
2019-05-13T03:55:43.178Z,18.70
2019-05-13T03:58:14.847Z,19.00
2019-05-13T04:00:48.480Z,19.10
2019-05-13T04:03:22.743Z,18.80
2019-05-13T04:05:57.046Z,18.80
2019-05-13T04:08:32.640Z,18.90
2019-05-13T04:11:06.024Z,18.90
2019-05-13T04:13:42.887Z,19.00
2019-05-13T04:16:16.433Z,19.10
2019-05-13T04:18:53.352Z,19.30
2019-05-13T04:21:24.869Z,19.70
2019-05-13T04:23:58.646Z,19.20
2019-05-13T04:26:32.711Z,19.40
2019-05-13T04:29:06.619Z,19.60
2019-05-13T04:31:42.348Z,19.60
2019-05-13T04:34:14.852Z,19.10
2019-05-13T04:36:51.863Z,19.00
2019-05-13T04:39:39.741Z,19.10
2019-05-13T04:42:02.350Z,19.30
2019-05-13T04:44:34.928Z,19.30
2019-05-13T04:47:12.480Z,19.00
2019-05-13T04:49:44.597Z,19.00
2019-05-13T04:52:17.435Z,19.20
2019-05-13T04:54:52.820Z,19.40
2019-05-13T04:57:26.476Z,19.20
2019-05-13T05:00:03.730Z,18.90
2019-05-13T05:03:22.758Z,19.20
2019-05-13T05:06:17.372Z,19.10
2019-05-13T05:10:30.242Z,19.20
2019-05-13T05:13:32.396Z,19.30
2019-05-13T05:16:44.901Z,18.90
2019-05-13T05:20:12.479Z,18.80
2019-05-13T05:23:42.294Z,18.50
2019-05-13T05:27:12.095Z,18.00
2019-05-13T05:30:38.342Z,18.00
2019-05-13T05:33:44.677Z,17.70
2019-05-13T05:37:17.102Z,18.00
2019-05-13T05:39:51.921Z,18.10
2019-05-13T05:42:28.085Z,18.30
2019-05-13T05:45:04.769Z,18.30
2019-05-13T05:47:41.875Z,18.00
2019-05-13T05:50:16.373Z,17.90
2019-05-13T05:52:52.024Z,18.10
2019-05-13T05:55:27.751Z,17.80
2019-05-13T05:58:02.317Z,17.90
2019-05-13T06:00:41.322Z,17.80
2019-05-13T06:03:14.150Z,17.80
2019-05-13T06:05:51.255Z,17.80
2019-05-13T06:08:24.943Z,17.60
2019-05-13T06:11:00.736Z,17.80
2019-05-13T06:13:33.984Z,18.10
2019-05-13T06:16:07.802Z,18.50
2019-05-13T06:18:41.772Z,18.20
2019-05-13T06:21:14.950Z,17.80
2019-05-13T06:23:51.707Z,18.10
2019-05-13T06:26:24.092Z,18.20
2019-05-13T06:28:58.529Z,18.30
2019-05-13T06:31:32.397Z,18.30
2019-05-13T06:34:05.919Z,18.40
2019-05-13T06:36:41.674Z,18.50
2019-05-13T06:39:15.764Z,18.60
2019-05-13T06:41:51.736Z,18.30
2019-05-13T06:44:26.199Z,18.10
2019-05-13T06:47:02.605Z,18.20
2019-05-13T06:49:36.152Z,18.50
2019-05-13T06:52:12.126Z,18.90
2019-05-13T06:54:47.157Z,19.00
2019-05-13T06:57:21.980Z,19.20
2019-05-13T06:59:56.293Z,19.30
2019-05-13T07:02:29.106Z,19.20
2019-05-13T07:05:02.504Z,19.20
2019-05-13T07:07:35.494Z,19.60
2019-05-13T07:10:08.440Z,19.70
2019-05-13T07:12:42.563Z,19.10
2019-05-13T07:15:15.840Z,19.00
2019-05-13T07:17:51.810Z,19.00
2019-05-13T07:20:23.542Z,18.90
2019-05-13T07:22:57.706Z,18.40
2019-05-13T07:25:32.658Z,18.80
2019-05-13T07:28:06.370Z,18.90
2019-05-13T07:30:45.758Z,18.70
2019-05-13T07:33:21.334Z,18.80
2019-05-13T07:35:58.363Z,18.80
2019-05-13T07:38:32.343Z,18.80
2019-05-13T07:41:08.225Z,18.80
2019-05-13T07:43:42.908Z,19.20
2019-05-13T07:46:17.173Z,19.20
2019-05-13T07:48:52.079Z,19.30
2019-05-13T07:51:27.954Z,19.30
2019-05-13T07:54:02.411Z,19.10
2019-05-13T07:56:37.307Z,19.20
2019-05-13T07:59:12.259Z,19.30
2019-05-13T08:01:46.779Z,19.20
2019-05-13T08:04:25.578Z,19.20
2019-05-13T08:06:55.646Z,19.00
2019-05-13T08:09:31.133Z,19.30
2019-05-13T08:12:10.598Z,19.20
2019-05-13T08:14:43.232Z,19.50
2019-05-13T08:17:14.831Z,19.60
2019-05-13T08:19:48.147Z,19.60
2019-05-13T08:22:22.276Z,19.40
2019-05-13T08:24:56.435Z,19.60
2019-05-13T08:27:30.794Z,19.30
2019-05-13T08:30:04.584Z,19.40
2019-05-13T08:32:37.773Z,19.30
2019-05-13T08:35:12.502Z,19.50
2019-05-13T08:37:46.134Z,19.30
2019-05-13T08:40:23.298Z,19.30
2019-05-13T08:42:55.819Z,19.30
2019-05-13T08:45:31.511Z,19.20
2019-05-13T08:48:04.730Z,19.60
2019-05-13T08:50:38.118Z,19.40
2019-05-13T08:53:12.263Z,19.40
2019-05-13T08:55:46.361Z,18.90
2019-05-13T08:58:21.693Z,19.00
2019-05-13T09:00:58.979Z,19.20
2019-05-13T09:03:32.821Z,19.10
2019-05-13T09:06:06.572Z,19.00
2019-05-13T09:08:42.449Z,18.90
2019-05-13T09:11:15.778Z,19.10
2019-05-13T09:13:51.422Z,19.00
2019-05-13T09:16:24.507Z,18.70
2019-05-13T09:18:57.733Z,18.80
2019-05-13T09:21:31.874Z,19.40
2019-05-13T09:24:20.627Z,19.30
2019-05-13T09:26:42.388Z,19.40
2019-05-13T09:29:15.191Z,19.70
2019-05-13T09:31:48.946Z,20.20
2019-05-13T09:34:22.356Z,20.20
2019-05-13T09:36:55.662Z,20.10
2019-05-13T09:39:32.246Z,20.20
2019-05-13T09:42:04.680Z,20.30
2019-05-13T09:44:38.381Z,20.30
2019-05-13T09:47:12.770Z,20.20
2019-05-13T09:49:46.325Z,19.80
2019-05-13T09:52:22.581Z,20.10
2019-05-13T09:54:55.449Z,19.90
2019-05-13T09:57:31.989Z,20.00
2019-05-13T10:00:05.215Z,20.00
2019-05-13T10:02:39.022Z,19.60
2019-05-13T10:05:11.865Z,19.60
2019-05-13T10:07:45.605Z,19.90
2019-05-13T10:10:22.396Z,19.90
2019-05-13T10:13:08.184Z,19.80
2019-05-13T10:15:32.573Z,19.80
2019-05-13T10:18:05.445Z,19.90
2019-05-13T10:20:52.215Z,20.00
2019-05-13T10:23:24.420Z,20.00
2019-05-13T10:26:03.253Z,19.80
2019-05-13T10:28:38.622Z,19.90
2019-05-13T10:31:12.282Z,20.00
2019-05-13T10:33:46.530Z,19.80
2019-05-13T10:36:22.305Z,19.80
2019-05-13T10:38:56.124Z,20.20
2019-05-13T10:41:33.002Z,20.60
2019-05-13T10:44:04.888Z,21.10
2019-05-13T10:46:37.689Z,20.80
2019-05-13T10:49:12.425Z,20.80
2019-05-13T10:51:45.412Z,20.80
2019-05-13T10:54:18.684Z,20.50
2019-05-13T10:56:54.253Z,20.60
2019-05-13T10:59:27.339Z,20.20
2019-05-13T11:02:02.392Z,20.30
2019-05-13T11:04:36.900Z,20.10
2019-05-13T11:07:12.021Z,20.20
2019-05-13T11:09:45.767Z,20.20
2019-05-13T11:12:19.017Z,20.00
2019-05-13T11:14:55.071Z,20.10
2019-05-13T11:17:31.131Z,19.90
2019-05-13T11:20:03.966Z,19.70
2019-05-13T11:22:37.891Z,19.50
2019-05-13T11:25:12.294Z,19.80
2019-05-13T11:27:45.795Z,19.50
2019-05-13T11:30:21.633Z,19.60
2019-05-13T11:32:54.338Z,19.40
2019-05-13T11:35:27.548Z,19.50
2019-05-13T11:38:01.696Z,19.70
2019-05-13T11:40:36.796Z,19.90
2019-05-13T11:43:12.323Z,20.30
2019-05-13T11:45:45.414Z,20.40
2019-05-13T11:48:18.508Z,20.50
2019-05-13T11:50:54.180Z,20.50
2019-05-13T11:53:33.269Z,20.30
2019-05-13T11:56:03.550Z,20.60
2019-05-13T11:58:35.747Z,20.70
2019-05-13T12:01:09.710Z,20.60
2019-05-13T12:03:43.716Z,20.80
2019-05-13T12:06:18.334Z,20.40
2019-05-13T12:08:54.980Z,20.50
2019-05-13T12:11:25.972Z,20.40
2019-05-13T12:13:57.917Z,20.00
2019-05-13T12:16:30.433Z,19.70
2019-05-13T12:19:03.839Z,19.60
2019-05-13T12:21:42.149Z,19.60
2019-05-13T12:24:11.563Z,19.70
2019-05-13T12:26:44.133Z,19.90
2019-05-13T12:29:19.372Z,20.50
2019-05-13T12:31:52.836Z,20.60
2019-05-13T12:34:27.085Z,20.70
2019-05-13T12:37:02.873Z,20.70
2019-05-13T12:39:33.609Z,20.60
2019-05-13T12:42:07.124Z,20.10
2019-05-13T12:44:59.765Z,19.80
2019-05-13T12:47:13.903Z,19.80
2019-05-13T12:49:46.363Z,20.00
2019-05-13T12:52:18.334Z,19.90
2019-05-13T12:54:52.804Z,20.20
2019-05-13T12:57:25.522Z,20.10
2019-05-13T12:59:58.653Z,19.90
2019-05-13T13:02:32.614Z,19.90
2019-05-13T13:05:10.560Z,19.90
2019-05-13T13:07:42.507Z,19.60
2019-05-13T13:10:16.375Z,19.30
2019-05-13T13:12:53.116Z,19.10
2019-05-13T13:15:36.945Z,19.50
2019-05-13T13:17:58.549Z,19.40
2019-05-13T13:20:33.477Z,19.30
2019-05-13T13:23:06.570Z,19.60
2019-05-13T13:25:42.474Z,19.80
2019-05-13T13:28:15.480Z,19.70
2019-05-13T13:30:52.522Z,19.60
2019-05-13T13:33:22.860Z,19.40
2019-05-13T13:36:00.137Z,19.30
2019-05-13T13:38:32.724Z,19.60
2019-05-13T13:41:05.638Z,19.70
2019-05-13T13:43:38.598Z,20.00
2019-05-13T13:46:32.322Z,20.10
2019-05-13T13:48:46.489Z,20.20
2019-05-13T13:51:25.911Z,20.50
2019-05-13T13:53:56.608Z,20.50
2019-05-13T13:56:27.945Z,20.40
2019-05-13T13:59:00.143Z,20.60
2019-05-13T14:01:33.972Z,20.50
2019-05-13T14:04:07.330Z,20.50
2019-05-13T14:09:13.986Z,20.30
2019-05-13T14:11:47.148Z,20.00
2019-05-13T14:14:21.546Z,20.10
2019-05-13T14:16:55.250Z,20.50
2019-05-13T14:19:28.641Z,20.30
2019-05-13T14:22:01.936Z,20.60
2019-05-13T14:24:36.168Z,20.30
2019-05-13T14:27:12.117Z,20.00
2019-05-13T14:29:49.079Z,20.10
2019-05-13T14:32:22.476Z,20.20
2019-05-13T14:34:55.193Z,20.10
2019-05-13T14:37:31.819Z,20.20
2019-05-13T14:40:04.840Z,20.20
2019-05-13T14:42:37.664Z,20.00
2019-05-13T14:45:12.997Z,20.10
2019-05-13T14:47:46.315Z,20.30
2019-05-13T14:50:21.421Z,20.40
2019-05-13T14:52:54.485Z,20.20
2019-05-13T14:55:28.337Z,20.50
2019-05-13T14:58:02.632Z,20.60
2019-05-13T15:00:36.313Z,20.70
2019-05-13T15:03:12.856Z,20.50
2019-05-13T15:05:44.485Z,20.90
2019-05-13T15:08:22.104Z,20.90
2019-05-13T15:10:53.815Z,20.90
2019-05-13T15:13:27.182Z,21.20
2019-05-13T15:15:59.628Z,21.20
2019-05-13T15:18:33.414Z,21.00
2019-05-13T15:21:06.929Z,21.10
2019-05-13T15:23:42.281Z,21.30
2019-05-13T15:26:15.595Z,21.10
2019-05-13T15:28:48.795Z,21.40
2019-05-13T15:31:24.375Z,21.50
2019-05-13T15:33:58.657Z,21.30
2019-05-13T15:36:32.808Z,21.40
2019-05-13T15:39:07.697Z,21.70
2019-05-13T15:41:41.815Z,21.80
2019-05-13T15:44:15.529Z,22.00
2019-05-13T15:46:52.026Z,21.60
2019-05-13T15:49:24.093Z,21.80
2019-05-13T15:51:57.890Z,21.70
2019-05-13T15:54:32.757Z,22.10
2019-05-13T15:57:06.119Z,22.80
2019-05-13T15:59:41.496Z,23.30
2019-05-13T16:02:14.791Z,23.60
2019-05-13T16:04:57.827Z,24.10
2019-05-13T16:07:24.128Z,24.60
2019-05-13T16:09:57.437Z,24.80
2019-05-13T16:12:32.065Z,25.00
2019-05-13T16:15:04.722Z,24.90
2019-05-13T16:17:43.987Z,25.10
2019-05-13T16:20:14.590Z,25.30
2019-05-13T16:22:48.801Z,25.60
2019-05-13T16:25:22.993Z,25.70
2019-05-13T16:27:57.639Z,25.80
2019-05-13T16:30:32.269Z,25.60
2019-05-13T16:33:05.385Z,24.60
2019-05-13T16:35:39.367Z,24.10
2019-05-13T16:38:13.010Z,24.00
2019-05-13T16:40:46.304Z,23.70
2019-05-13T16:43:20.931Z,23.80
2019-05-13T16:45:54.584Z,23.30
2019-05-13T16:48:27.496Z,23.00
2019-05-13T16:51:01.036Z,22.70
2019-05-13T16:53:34.866Z,23.00
2019-05-13T16:56:08.626Z,23.00
2019-05-13T16:58:42.293Z,23.20
2019-05-13T17:01:16.046Z,23.10
2019-05-13T17:03:51.286Z,23.30
2019-05-13T17:06:24.462Z,23.30
2019-05-13T17:08:58.165Z,23.30
2019-05-13T17:11:32.551Z,22.80
2019-05-13T17:14:06.284Z,22.40
2019-05-13T17:16:41.461Z,22.70
2019-05-13T17:19:15.320Z,22.60
2019-05-13T17:21:52.046Z,22.70
2019-05-13T17:24:28.080Z,22.80
2019-05-13T17:27:02.741Z,23.00
2019-05-13T17:29:36.835Z,23.30
2019-05-13T17:32:11.698Z,23.50
2019-05-13T17:34:46.123Z,23.50
2019-05-13T17:37:22.140Z,23.60
2019-05-13T17:39:55.584Z,23.60
2019-05-13T17:42:33.260Z,23.60
2019-05-13T17:45:07.218Z,23.50
2019-05-13T17:47:41.893Z,23.50
2019-05-13T17:50:15.718Z,23.40
2019-05-13T17:52:48.470Z,23.40
2019-05-13T17:55:22.404Z,23.10
2019-05-13T17:57:55.281Z,22.70
2019-05-13T18:00:32.291Z,22.40
2019-05-13T18:03:04.650Z,22.30
2019-05-13T18:05:37.879Z,22.30
2019-05-13T18:08:11.383Z,22.00
2019-05-13T18:10:44.879Z,21.60
2019-05-13T18:13:17.859Z,21.00
2019-05-13T18:15:51.199Z,20.90
2019-05-13T18:18:38.968Z,20.10
2019-05-13T18:21:01.520Z,20.40
2019-05-13T18:23:33.595Z,20.80
2019-05-13T18:26:06.900Z,21.20
2019-05-13T18:28:42.002Z,21.80
2019-05-13T18:31:13.869Z,22.20
2019-05-13T18:33:47.103Z,22.20
2019-05-13T18:36:22.136Z,22.20
2019-05-13T18:38:54.662Z,22.40
2019-05-13T18:41:26.687Z,21.90
2019-05-13T18:44:01.342Z,21.70
2019-05-13T18:46:34.432Z,21.40
2019-05-13T18:49:06.437Z,21.20
2019-05-13T18:51:38.851Z,21.00
2019-05-13T18:54:11.933Z,20.70
2019-05-13T18:56:46.643Z,20.60
2019-05-13T18:59:21.409Z,20.50
2019-05-13T19:01:55.116Z,20.50
2019-05-13T19:04:28.570Z,20.70
2019-05-13T19:07:02.273Z,20.60
2019-05-13T19:09:35.711Z,20.70
2019-05-13T19:12:08.760Z,20.30
2019-05-13T19:14:41.346Z,19.90
2019-05-13T19:17:13.763Z,19.90
2019-05-13T19:19:46.546Z,20.10
2019-05-13T19:22:21.419Z,20.10
2019-05-13T19:24:54.063Z,20.30
2019-05-13T19:27:27.364Z,20.60
2019-05-13T19:30:01.355Z,20.60
2019-05-13T19:32:34.882Z,20.40
2019-05-13T19:35:07.750Z,20.10
2019-05-13T19:37:42.401Z,19.90
2019-05-13T19:40:14.385Z,19.80
2019-05-13T19:42:46.779Z,19.90
2019-05-13T19:45:21.808Z,20.00
2019-05-13T19:47:54.372Z,20.20
2019-05-13T19:50:26.782Z,20.50
2019-05-13T19:53:01.273Z,20.70
2019-05-13T19:55:34.411Z,20.70
2019-05-13T19:58:08.286Z,20.60
2019-05-13T20:00:42.358Z,20.70
2019-05-13T20:03:15.170Z,20.60
2019-05-13T20:05:51.283Z,20.90
2019-05-13T20:08:24.491Z,20.80
2019-05-13T20:10:58.139Z,20.80
2019-05-13T20:13:31.972Z,20.80
2019-05-13T20:16:06.107Z,20.60
2019-05-13T20:18:41.418Z,20.30
2019-05-13T20:21:16.163Z,19.90
2019-05-13T20:23:51.885Z,19.40
2019-05-13T20:26:25.614Z,19.50
2019-05-13T20:28:58.379Z,19.50
2019-05-13T20:31:32.308Z,19.60
2019-05-13T20:34:05.597Z,19.70
2019-05-13T20:36:39.437Z,19.90
2019-05-13T20:39:12.800Z,19.90
2019-05-13T20:41:46.097Z,19.80
2019-05-13T20:44:18.595Z,19.90
2019-05-13T20:46:52.814Z,20.00
2019-05-13T20:49:26.197Z,20.20
2019-05-13T20:52:02.205Z,20.30
2019-05-13T20:54:36.259Z,20.20
2019-05-13T20:57:10.066Z,20.20
2019-05-13T20:59:43.391Z,20.30
2019-05-13T21:02:16.435Z,20.20
2019-05-13T21:04:49.494Z,20.10
2019-05-13T21:07:23.996Z,20.20
2019-05-13T21:09:57.788Z,20.00
2019-05-13T21:12:31.366Z,20.00
2019-05-13T21:15:05.099Z,20.00
2019-05-13T21:17:39.009Z,20.10
2019-05-13T21:20:19.726Z,19.90
2019-05-13T21:22:47.536Z,19.80
2019-05-13T21:25:20.831Z,19.70
2019-05-13T21:27:53.708Z,19.70
2019-05-13T21:30:27.114Z,19.60
2019-05-13T21:33:02.225Z,19.80
2019-05-13T21:35:34.899Z,19.90
2019-05-13T21:38:08.270Z,20.00
2019-05-13T21:40:41.770Z,20.10
2019-05-13T21:43:14.723Z,20.10
2019-05-13T21:45:48.293Z,20.10
2019-05-13T21:48:21.855Z,20.00
2019-05-13T21:50:55.561Z,19.70
2019-05-13T21:53:28.888Z,19.20
2019-05-13T21:56:02.697Z,19.20
2019-05-13T21:58:36.528Z,19.30
2019-05-13T22:01:09.941Z,19.50
2019-05-13T22:03:43.849Z,19.40
2019-05-13T22:06:17.609Z,19.40
2019-05-13T22:08:51.834Z,19.20
2019-05-13T22:11:25.740Z,19.00
2019-05-13T22:14:01.704Z,18.80
2019-05-13T22:16:34.016Z,18.60
2019-05-13T22:19:06.902Z,18.50
2019-05-13T22:21:42.384Z,18.70
2019-05-13T22:24:15.314Z,18.90
2019-05-13T22:26:51.200Z,18.90
2019-05-13T22:29:24.243Z,18.80
2019-05-13T22:31:58.057Z,18.40
2019-05-13T22:34:31.891Z,18.30
2019-05-13T22:37:05.681Z,18.10
2019-05-13T22:39:38.997Z,18.10
2019-05-13T22:42:12.676Z,18.00
2019-05-13T22:44:45.972Z,18.00
2019-05-13T22:47:22.000Z,18.10
2019-05-13T22:49:56.986Z,17.90
2019-05-13T22:52:31.481Z,18.20
2019-05-13T22:55:04.744Z,18.10
2019-05-13T22:57:38.187Z,18.10
2019-05-13T23:00:12.011Z,18.10
2019-05-13T23:02:46.517Z,18.20
2019-05-13T23:05:21.745Z,18.20
2019-05-13T23:07:55.214Z,18.20
2019-05-13T23:10:31.655Z,18.20
2019-05-13T23:13:04.458Z,18.20
2019-05-13T23:15:38.174Z,18.10
2019-05-13T23:18:11.861Z,18.10
2019-05-13T23:20:45.440Z,18.10
2019-05-13T23:23:21.980Z,18.20
2019-05-13T23:25:56.827Z,18.20
2019-05-13T23:28:29.357Z,18.20
2019-05-13T23:31:02.953Z,18.40
2019-05-13T23:33:36.268Z,18.30
2019-05-13T23:36:09.176Z,18.30
2019-05-13T23:38:42.464Z,18.20
2019-05-13T23:41:16.672Z,18.30
2019-05-13T23:43:50.043Z,18.30
2019-05-13T23:46:23.327Z,18.20
2019-05-13T23:48:57.094Z,18.10
2019-05-13T23:51:32.056Z,18.10
2019-05-13T23:54:04.603Z,18.10
2019-05-13T23:56:38.383Z,18.10
2019-05-13T23:59:11.740Z,17.90
